Time;durP1;ratioP1;P1;durP2;ratioP2;P2;SDS_P1;SDS_P2;PMS_P1;PMS_P2;Temp;Humidity;BMP_temperature;BMP_pressure;BME280_temperature;BME280_humidity;BME280_pressure;Samples;Min_cycle;Max_cycle;Signal;HPM_P1;HPM_P2
2023/02/17 04:53:51;;;;;;;9.82;5.53;;;14.00;70.90;;;;;;5214810;24;20161;-81
2023/02/17 04:56:17;;;;;;;13.48;5.20;;;14.00;71.00;;;;;;4863431;29;20410;-77
2023/02/17 04:58:43;;;;;;;17.92;5.22;;;14.00;71.30;;;;;;4858761;29;20117;-76
2023/02/17 05:01:09;;;;;;;16.58;4.82;;;14.00;71.50;;;;;;4862650;29;20430;-76
2023/02/17 05:03:35;;;;;;;11.88;4.43;;;14.10;71.50;;;;;;4863098;29;20117;-72
2023/02/17 05:06:01;;;;;;;9.73;4.03;;;14.20;71.70;;;;;;4876409;29;20508;-75
2023/02/17 05:08:27;;;;;;;10.07;4.18;;;14.30;71.70;;;;;;4864044;29;20144;-79
2023/02/17 05:10:52;;;;;;;9.60;3.45;;;14.40;71.50;;;;;;4863039;29;20041;-77
2023/02/17 05:13:19;;;;;;;9.68;3.90;;;14.50;71.40;;;;;;4870255;29;20049;-78
2023/02/17 05:15:45;;;;;;;9.93;4.28;;;14.50;71.30;;;;;;4863521;29;20430;-78
2023/02/17 05:18:12;;;;;;;12.48;4.22;;;14.60;71.90;;;;;;4863014;29;20441;-71
2023/02/17 05:20:38;;;;;;;13.45;4.72;;;14.70;71.40;;;;;;4863259;29;20101;-76
2023/02/17 05:23:04;;;;;;;17.77;5.03;;;14.80;71.50;;;;;;4863296;29;20528;-77
2023/02/17 05:25:30;;;;;;;15.93;4.70;;;14.90;71.50;;;;;;4863345;29;20445;-76
2023/02/17 05:27:55;;;;;;;12.00;3.85;;;14.90;71.50;;;;;;4863431;29;20120;-78
2023/02/17 05:30:21;;;;;;;16.25;4.55;;;14.90;71.70;;;;;;4863267;29;20053;-76
2023/02/17 05:32:47;;;;;;;15.18;4.32;;;15.00;71.80;;;;;;4862162;29;20049;-76
2023/02/17 05:35:13;;;;;;;12.48;4.32;;;15.00;71.70;;;;;;4863161;29;20057;-76
2023/02/17 05:37:38;;;;;;;16.73;4.25;;;15.10;71.80;;;;;;4873379;29;20068;-75
2023/02/17 05:40:05;;;;;;;11.93;4.55;;;15.20;71.60;;;;;;4862354;29;20068;-75
2023/02/17 05:42:31;;;;;;;13.02;4.25;;;15.30;71.50;;;;;;4863577;29;20429;-76
2023/02/17 05:44:56;;;;;;;12.98;4.20;;;15.40;71.40;;;;;;4863700;29;20049;-77
2023/02/17 05:47:23;;;;;;;15.50;5.72;;;15.50;71.40;;;;;;4862615;29;20042;-76
2023/02/17 05:49:49;;;;;;;16.77;4.22;;;15.60;71.50;;;;;;4857872;29;20137;-75
2023/02/17 05:52:17;;;;;;;15.63;4.45;;;15.60;71.50;;;;;;4863124;29;20139;-78
2023/02/17 05:54:43;;;;;;;13.60;4.15;;;15.70;71.60;;;;;;4861665;29;20430;-78
2023/02/17 05:57:09;;;;;;;15.73;3.95;;;15.70;71.30;;;;;;4862785;29;20037;-76
2023/02/17 05:59:35;;;;;;;20.33;4.72;;;15.80;71.20;;;;;;4863437;29;20038;-76
2023/02/17 06:02:00;;;;;;;13.20;4.75;;;15.80;71.00;;;;;;4862729;29;20076;-75
2023/02/17 06:04:26;;;;;;;17.40;4.20;;;15.90;71.10;;;;;;4862936;29;20065;-74
2023/02/17 06:06:52;;;;;;;19.13;4.18;;;15.80;71.40;;;;;;4862353;29;20045;-79
2023/02/17 06:09:18;;;;;;;13.15;4.38;;;15.90;71.60;;;;;;4862763;29;20053;-78
2023/02/17 06:11:43;;;;;;;16.13;4.60;;;15.90;71.70;;;;;;4862762;29;20365;-77
2023/02/17 06:14:09;;;;;;;17.50;4.75;;;16.00;72.00;;;;;;4831078;29;20423;-77
2023/02/17 06:16:35;;;;;;;23.83;4.57;;;16.00;71.90;;;;;;4862660;29;20124;-78
2023/02/17 06:19:01;;;;;;;13.30;4.25;;;15.90;72.10;;;;;;4844665;29;20209;-78
2023/02/17 06:21:27;;;;;;;18.05;5.50;;;16.00;72.30;;;;;;4861101;29;20381;-77
2023/02/17 06:23:53;;;;;;;13.30;4.03;;;16.00;72.10;;;;;;4859407;29;20069;-78
2023/02/17 06:26:19;;;;;;;16.70;4.75;;;16.00;72.30;;;;;;4830059;29;20111;-76
2023/02/17 06:28:45;;;;;;;18.48;4.75;;;16.00;72.40;;;;;;4862321;29;20060;-77
2023/02/17 06:31:10;;;;;;;20.85;5.60;;;16.00;72.60;;;;;;4862512;29;20445;-77
2023/02/17 06:33:36;;;;;;;19.08;5.32;;;16.00;72.20;;;;;;4846169;29;20057;-77
2023/02/17 06:36:05;;;;;;;20.88;5.25;;;15.50;70.80;;;;;;4861804;29;20076;-77
2023/02/17 06:38:31;;;;;;;18.95;4.97;;;15.60;72.30;;;;;;4861266;29;20057;-76
2023/02/17 06:40:57;;;;;;;21.42;4.97;;;15.60;72.80;;;;;;4861472;29;20037;-76
2023/02/17 06:43:22;;;;;;;17.25;4.88;;;15.70;72.90;;;;;;4861077;29;20050;-75
2023/02/17 06:45:48;;;;;;;20.00;5.25;;;15.70;72.80;;;;;;4861467;29;20410;-76
2023/02/17 06:48:14;;;;;;;21.65;6.18;;;15.80;72.70;;;;;;4861190;29;20176;-76
2023/02/17 06:50:40;;;;;;;26.45;5.68;;;15.80;72.50;;;;;;4861488;29;20376;-76
2023/02/17 06:53:05;;;;;;;24.98;6.47;;;15.80;71.80;;;;;;4856287;29;20045;-77
2023/02/17 06:55:33;;;;;;;18.67;5.10;;;15.80;72.00;;;;;;4861335;29;20537;-75
2023/02/17 06:57:59;;;;;;;21.77;5.82;;;15.80;71.80;;;;;;4861602;29;20045;-76
2023/02/17 07:00:25;;;;;;;23.73;6.07;;;15.80;71.70;;;;;;4862982;29;20475;-75
2023/02/17 07:02:51;;;;;;;19.63;4.55;;;15.90;71.60;;;;;;4864523;29;20056;-76
2023/02/17 07:05:17;;;;;;;21.85;5.28;;;15.90;71.50;;;;;;4865332;29;20049;-77
2023/02/17 07:07:43;;;;;;;19.48;5.15;;;15.90;71.40;;;;;;4865567;29;20053;-77
2023/02/17 07:10:09;;;;;;;18.48;5.90;;;15.90;70.90;;;;;;4864205;29;20056;-76
2023/02/17 07:12:35;;;;;;;14.52;4.97;;;16.00;70.50;;;;;;4865873;29;20045;-77
2023/02/17 07:15:01;;;;;;;18.42;5.03;;;16.00;70.20;;;;;;4862353;29;20049;-76
2023/02/17 07:17:26;;;;;;;13.20;4.38;;;16.00;70.20;;;;;;4858207;29;20361;-77
2023/02/17 07:19:52;;;;;;;15.40;4.50;;;16.00;70.00;;;;;;4865443;29;20060;-76
2023/02/17 07:22:18;;;;;;;12.85;4.20;;;16.00;69.90;;;;;;4864998;29;20481;-78
2023/02/17 07:24:43;;;;;;;12.48;4.30;;;15.90;69.70;;;;;;4875841;29;20053;-76
2023/02/17 07:27:09;;;;;;;17.98;4.75;;;15.90;69.60;;;;;;4864461;29;20053;-77
2023/02/17 07:29:35;;;;;;;9.20;3.40;;;15.90;69.60;;;;;;4865064;29;20045;-78
2023/02/17 07:32:01;;;;;;;12.43;3.75;;;15.90;69.60;;;;;;4861613;29;20057;-76
2023/02/17 07:34:26;;;;;;;13.23;4.78;;;15.90;69.60;;;;;;4864103;29;20046;-76
2023/02/17 07:36:52;;;;;;;12.50;4.40;;;15.90;69.50;;;;;;4876953;29;20065;-75
2023/02/17 07:39:18;;;;;;;13.10;4.63;;;15.80;69.40;;;;;;4864469;29;20413;-77
2023/02/17 07:41:43;;;;;;;9.80;4.00;;;15.80;69.50;;;;;;4864558;29;20045;-76
2023/02/17 07:44:09;;;;;;;11.88;4.20;;;15.70;69.50;;;;;;4864987;29;20049;-76
2023/02/17 07:46:35;;;;;;;12.43;4.22;;;15.70;69.60;;;;;;4865401;29;20045;-75
2023/02/17 07:49:01;;;;;;;18.48;4.65;;;15.70;69.80;;;;;;4864203;29;20120;-76
2023/02/17 07:51:27;;;;;;;13.32;4.40;;;15.70;69.90;;;;;;4864630;29;20452;-76
2023/02/17 07:53:53;;;;;;;13.18;4.30;;;15.70;69.90;;;;;;4862032;29;20500;-76
2023/02/17 07:56:20;;;;;;;10.30;3.63;;;15.70;69.90;;;;;;4882597;29;20049;-76
2023/02/17 07:58:47;;;;;;;11.05;3.67;;;15.70;69.90;;;;;;4883006;29;20052;-77
2023/02/17 08:01:22;;;;;;;7.25;3.42;;;15.70;70.60;;;;;;4882943;29;20057;-72
2023/02/17 08:03:49;;;;;;;13.95;4.00;;;15.70;71.20;;;;;;4883456;29;20127;-76
2023/02/17 08:06:21;;;;;;;8.85;3.67;;;15.80;71.50;;;;;;4882879;29;20105;-74
2023/02/17 08:14:20;;;;;;;9.50;3.63;;;15.90;70.90;;;;;;4882751;29;20131;-77
2023/02/17 08:16:46;;;;;;;7.32;3.08;;;15.90;70.70;;;;;;4882705;29;20048;-75
2023/02/17 08:19:11;;;;;;;9.40;3.22;;;15.90;70.20;;;;;;4883643;29;20053;-75
2023/02/17 08:21:38;;;;;;;9.13;3.45;;;15.90;69.80;;;;;;4882950;29;20048;-76
2023/02/17 08:24:04;;;;;;;8.85;3.15;;;15.80;69.50;;;;;;4866798;29;20453;-77
2023/02/17 08:26:30;;;;;;;8.07;3.15;;;15.80;69.30;;;;;;4882396;29;20449;-77
2023/02/17 08:28:56;;;;;;;9.18;3.50;;;15.80;69.20;;;;;;4883038;29;20052;-77
2023/02/17 08:31:25;;;;;;;12.82;4.05;;;15.80;69.20;;;;;;4883240;29;20496;-76
2023/02/17 08:33:51;;;;;;;8.98;4.10;;;15.70;69.10;;;;;;4883074;29;20095;-75
2023/02/17 08:36:21;;;;;;;9.93;3.95;;;15.70;68.90;;;;;;4882238;29;20057;-76
2023/02/17 08:38:49;;;;;;;10.07;3.30;;;15.70;68.80;;;;;;4882571;29;20060;-75
2023/02/17 08:41:35;;;;;;;8.63;3.05;;;15.60;68.80;;;;;;4882625;29;20052;-74
2023/02/17 08:44:06;;;;;;;9.25;3.28;;;15.60;68.30;;;;;;4882641;29;20059;-76
2023/02/17 08:46:34;;;;;;;7.60;2.38;;;15.60;68.50;;;;;;4882608;29;20041;-77
2023/02/17 08:49:00;;;;;;;8.60;2.60;;;15.70;68.40;;;;;;4882445;29;20076;-77
2023/02/17 08:51:26;;;;;;;8.48;2.70;;;15.80;68.70;;;;;;4882938;29;20053;-77
2023/02/17 08:53:54;;;;;;;6.80;2.70;;;15.90;68.60;;;;;;4882214;29;20049;-77
2023/02/17 08:56:21;;;;;;;7.28;2.70;;;16.00;68.60;;;;;;4866101;29;20085;-77
2023/02/17 08:58:47;;;;;;;9.77;2.33;;;16.00;68.50;;;;;;4882579;29;20075;-75
2023/02/17 09:01:13;;;;;;;6.13;1.90;;;16.00;68.50;;;;;;4865930;29;20124;-77
2023/02/17 09:03:40;;;;;;;9.40;2.05;;;16.10;68.50;;;;;;4882545;29;20148;-76
2023/02/17 09:06:07;;;;;;;8.85;2.30;;;16.10;68.70;;;;;;4882844;29;20045;-75
2023/02/17 09:08:34;;;;;;;12.40;2.67;;;16.10;68.80;;;;;;4881848;29;20048;-77
2023/02/17 09:10:59;;;;;;;11.43;2.35;;;16.10;68.80;;;;;;4882699;29;20433;-76
2023/02/17 09:13:25;;;;;;;11.85;1.92;;;16.10;68.70;;;;;;4881598;29;20065;-75
2023/02/17 09:15:52;;;;;;;9.25;2.58;;;16.10;68.70;;;;;;4882092;29;20361;-76
2023/02/17 09:18:22;;;;;;;6.72;1.77;;;16.20;68.80;;;;;;4865808;29;20124;-75
2023/02/17 09:20:48;;;;;;;7.88;1.95;;;16.20;68.60;;;;;;4881232;29;20504;-75
2023/02/17 09:23:15;;;;;;;7.50;1.83;;;16.20;68.50;;;;;;4874438;29;20049;-76
2023/02/17 09:25:42;;;;;;;8.93;1.92;;;16.30;68.40;;;;;;4881859;29;20045;-76
2023/02/17 09:28:09;;;;;;;9.13;2.10;;;16.40;68.30;;;;;;4882037;29;20092;-76
2023/02/17 09:30:35;;;;;;;9.38;1.73;;;16.50;68.20;;;;;;4880112;29;20053;-77
2023/02/17 09:33:01;;;;;;;6.43;1.42;;;16.60;68.00;;;;;;4881459;29;20382;-76
2023/02/17 09:35:27;;;;;;;10.52;2.15;;;16.60;67.90;;;;;;4880898;29;20437;-77
2023/02/17 09:37:53;;;;;;;8.20;1.67;;;16.60;67.70;;;;;;4864790;29;20127;-76
2023/02/17 09:40:36;;;;;;;5.93;1.70;;;16.70;67.70;;;;;;4864611;29;20095;-77
2023/02/17 09:43:02;;;;;;;9.33;1.87;;;16.70;67.60;;;;;;4881534;29;20048;-75
2023/02/17 09:45:33;;;;;;;5.18;1.38;;;16.80;67.60;;;;;;4881557;29;20048;-76
2023/02/17 09:48:05;;;;;;;9.05;1.80;;;16.80;67.50;;;;;;4879759;29;20100;-76
2023/02/17 09:50:40;;;;;;;8.98;1.88;;;16.80;67.50;;;;;;4881374;29;20059;-78
2023/02/17 09:53:14;;;;;;;7.97;2.00;;;16.80;67.50;;;;;;4864254;29;20076;-76
2023/02/17 09:55:48;;;;;;;10.00;1.92;;;16.80;67.50;;;;;;4880717;29;20373;-76
2023/02/17 09:58:22;;;;;;;7.72;2.00;;;16.80;67.50;;;;;;4881319;29;20049;-79
2023/02/17 10:00:53;;;;;;;6.97;2.08;;;16.70;67.60;;;;;;4880388;29;20089;-80
2023/02/17 10:03:31;;;;;;;6.90;1.50;;;16.70;67.60;;;;;;4881505;29;20088;-78
2023/02/17 10:06:14;;;;;;;7.57;2.35;;;16.70;67.60;;;;;;4882072;29;20364;-78
2023/02/17 10:11:20;;;;;;;7.97;1.85;;;16.60;67.10;;;;;;5133567;27;20681;-78
2023/02/17 10:13:46;;;;;;;4.13;1.05;;;16.60;67.80;;;;;;5045060;28;20052;-78
2023/02/17 10:16:20;;;;;;;14.40;1.95;;;16.50;67.80;;;;;;5082540;28;20055;-78
2023/02/17 10:19:01;;;;;;;7.18;1.77;;;16.50;67.80;;;;;;5092866;28;21024;-78
2023/02/17 10:22:07;;;;;;;9.30;1.92;;;16.50;67.70;;;;;;5112826;28;20066;-79
2023/02/17 10:24:33;;;;;;;7.85;1.73;;;16.50;67.70;;;;;;5104656;28;20063;-77
2023/02/17 10:27:26;;;;;;;7.03;1.65;;;16.50;67.80;;;;;;5093756;28;20123;-78
2023/02/17 10:30:04;;;;;;;10.70;1.90;;;16.50;67.70;;;;;;5091591;28;20067;-78
2023/02/17 10:32:39;;;;;;;12.30;2.38;;;16.50;67.80;;;;;;5075914;28;20048;-81
2023/02/17 10:35:15;;;;;;;11.13;1.83;;;16.50;67.90;;;;;;5091888;28;20458;-78
2023/02/17 10:37:46;;;;;;;7.82;1.88;;;16.50;67.90;;;;;;5074421;28;20353;-79
2023/02/17 10:40:24;;;;;;;15.63;2.30;;;16.50;67.80;;;;;;5092120;28;20044;-79
2023/02/17 10:42:55;;;;;;;8.27;2.10;;;16.50;67.70;;;;;;5092539;28;20056;-77
2023/02/17 10:45:36;;;;;;;15.75;2.67;;;16.50;67.70;;;;;;5092517;28;20044;-78
2023/02/17 10:48:11;;;;;;;11.25;2.10;;;16.50;67.60;;;;;;5081306;28;20063;-76
2023/02/17 10:50:39;;;;;;;9.48;2.40;;;16.50;67.60;;;;;;5092531;28;20484;-79
2023/02/17 10:53:16;;;;;;;14.40;2.63;;;16.50;67.60;;;;;;5101308;28;20366;-79
2023/02/17 10:56:17;;;;;;;11.93;2.38;;;16.60;67.50;;;;;;5092047;28;20128;-78
2023/02/17 10:59:07;;;;;;;7.60;2.22;;;16.50;67.50;;;;;;5050152;28;20048;-78
2023/02/17 11:01:35;;;;;;;8.13;1.73;;;16.60;67.60;;;;;;5091537;28;20051;-78
2023/02/17 11:04:11;;;;;;;8.40;1.73;;;16.50;67.60;;;;;;5073998;28;20068;-77
2023/02/17 11:06:47;;;;;;;7.80;1.90;;;16.50;67.60;;;;;;5074039;28;20063;-78
2023/02/17 11:09:27;;;;;;;6.47;2.05;;;16.50;67.60;;;;;;5080519;28;20052;-79
2023/02/17 11:12:09;;;;;;;14.30;2.70;;;16.50;67.50;;;;;;5092479;28;20417;-77
2023/02/17 11:14:36;;;;;;;10.00;2.00;;;16.50;67.60;;;;;;5100120;28;20036;-76
2023/02/17 11:17:32;;;;;;;8.13;1.98;;;16.50;67.70;;;;;;5106458;28;20040;-77
2023/02/17 11:20:06;;;;;;;11.07;2.45;;;16.50;67.60;;;;;;5101934;28;20121;-76
2023/02/17 11:22:59;;;;;;;10.75;2.33;;;16.50;67.70;;;;;;5068647;28;20048;-75
2023/02/17 11:25:31;;;;;;;12.20;2.13;;;16.50;67.60;;;;;;5053665;28;20055;-77
2023/02/17 11:28:00;;;;;;;10.25;2.40;;;16.50;67.60;;;;;;5077578;28;20113;-77
2023/02/17 11:30:27;;;;;;;7.13;1.45;;;16.50;67.50;;;;;;5061050;28;20049;-75
2023/02/17 11:32:54;;;;;;;7.30;1.90;;;16.50;67.40;;;;;;5086377;28;20048;-77
2023/02/17 11:35:34;;;;;;;7.55;1.60;;;16.40;67.30;;;;;;5084793;28;20044;-76
2023/02/17 11:38:12;;;;;;;7.07;2.33;;;16.40;67.20;;;;;;5079452;28;20112;-77
2023/02/17 11:40:40;;;;;;;9.27;1.80;;;16.40;67.20;;;;;;5098073;28;20048;-76
2023/02/17 11:43:06;;;;;;;7.15;1.40;;;16.40;67.10;;;;;;5095385;28;20141;-76
2023/02/17 11:45:57;;;;;;;6.88;1.80;;;16.50;67.10;;;;;;5094384;28;20359;-76
2023/02/17 11:48:44;;;;;;;9.90;1.92;;;16.40;66.80;;;;;;5078519;28;20526;-78
2023/02/17 11:51:17;;;;;;;6.47;1.95;;;16.40;67.00;;;;;;5077319;28;20040;-75
2023/02/17 11:54:01;;;;;;;5.78;1.88;;;16.40;66.80;;;;;;5083039;28;20044;-79
2023/02/17 11:56:36;;;;;;;6.13;1.70;;;15.90;67.50;;;;;;5077511;28;20052;-76
2023/02/17 11:59:20;;;;;;;5.68;1.45;;;15.70;68.40;;;;;;5086347;28;20463;-76
2023/02/17 12:02:14;;;;;;;9.80;1.48;;;15.50;69.40;;;;;;5097086;28;20054;-77
2023/02/17 12:04:44;;;;;;;8.27;1.70;;;15.40;69.90;;;;;;5097520;28;20056;-77
2023/02/17 12:07:10;;;;;;;5.72;1.23;;;15.20;70.30;;;;;;5076135;28;20044;-77
2023/02/17 12:09:47;;;;;;;5.35;1.63;;;15.20;70.50;;;;;;5084398;28;20121;-74
2023/02/17 12:12:21;;;;;;;4.07;1.33;;;15.20;70.70;;;;;;5075645;28;20057;-76
2023/02/17 12:14:56;;;;;;;;;;;15.20;70.80;;;;;;5064226;28;20058;-76
2023/02/17 12:17:47;;;;;;;5.55;1.85;;;15.10;70.90;;;;;;5093541;28;19946;-75
2023/02/17 12:20:44;;;;;;;9.88;1.90;;;15.10;70.90;;;;;;5092524;28;20063;-77
2023/02/17 12:23:34;;;;;;;6.78;1.65;;;15.10;71.10;;;;;;5087077;28;20051;-75
2023/02/17 12:26:30;;;;;;;7.22;1.75;;;15.10;70.90;;;;;;5080799;28;20122;-74
2023/02/17 12:29:34;;;;;;;4.50;1.50;;;15.10;70.90;;;;;;5005100;28;20511;-76
2023/02/17 12:32:22;;;;;;;6.63;1.80;;;15.10;70.90;;;;;;5080690;28;20048;-76
2023/02/17 12:34:58;;;;;;;5.28;1.88;;;15.10;70.80;;;;;;5063587;28;20108;-76
2023/02/17 12:37:46;;;;;;;9.00;1.77;;;15.10;70.80;;;;;;5060563;28;20048;-76
2023/02/17 12:40:29;;;;;;;7.57;1.65;;;15.10;70.90;;;;;;5083168;28;20109;-78
2023/02/17 12:43:00;;;;;;;5.22;1.38;;;15.10;70.90;;;;;;5096727;28;20442;-76
2023/02/17 12:45:38;;;;;;;7.10;1.73;;;15.10;70.80;;;;;;5096327;28;20454;-76
2023/02/17 12:48:13;;;;;;;5.80;1.70;;;15.10;70.90;;;;;;5096862;28;20106;-77
2023/02/17 12:50:57;;;;;;;6.50;1.73;;;15.10;70.80;;;;;;5096705;28;20347;-78
2023/02/17 12:53:54;;;;;;;4.55;1.60;;;15.10;70.70;;;;;;5096357;28;20052;-76
2023/02/17 12:56:32;;;;;;;12.73;2.22;;;15.10;70.70;;;;;;5055220;28;20052;-75
2023/02/17 12:59:09;;;;;;;14.20;2.88;;;15.10;70.50;;;;;;5096350;28;20048;-76
2023/02/17 13:01:38;;;;;;;10.25;2.97;;;15.20;69.40;;;;;;5096588;28;20063;-77
2023/02/17 13:04:04;;;;;;;11.48;2.97;;;15.20;68.70;;;;;;5095992;28;20040;-76
2023/02/17 13:06:42;;;;;;;7.13;1.67;;;15.20;69.20;;;;;;5093875;28;20138;-75
2023/02/17 13:09:13;;;;;;;8.07;2.30;;;15.20;69.40;;;;;;5058021;28;20056;-76
2023/02/17 13:11:39;;;;;;;10.38;2.88;;;15.20;69.50;;;;;;5075750;28;20087;-77
2023/02/17 13:14:25;;;;;;;9.07;2.13;;;15.20;69.50;;;;;;5075933;28;20517;-76
2023/02/17 13:16:51;;;;;;;5.93;1.92;;;15.20;69.50;;;;;;5058177;28;20054;-76
2023/02/17 13:19:31;;;;;;;8.07;2.03;;;15.20;69.50;;;;;;5075545;28;20471;-76
2023/02/17 13:22:02;;;;;;;8.00;1.80;;;15.20;69.60;;;;;;5058228;28;20447;-77
2023/02/17 13:24:38;;;;;;;8.60;1.63;;;15.20;69.60;;;;;;5058191;28;20048;-74
2023/02/17 13:27:34;;;;;;;6.38;1.45;;;15.20;69.60;;;;;;5058602;28;20052;-76
2023/02/17 13:30:20;;;;;;;5.97;1.35;;;15.30;69.60;;;;;;5059341;28;20061;-76
2023/02/17 13:32:58;;;;;;;8.90;1.77;;;15.20;69.60;;;;;;5075694;28;20071;-75
2023/02/17 13:35:27;;;;;;;8.45;1.60;;;15.30;69.60;;;;;;5082182;28;20040;-75
2023/02/17 13:37:53;;;;;;;8.27;1.80;;;15.20;69.50;;;;;;5078588;28;20422;-77
2023/02/17 13:40:19;;;;;;;6.93;1.60;;;15.30;69.60;;;;;;5095821;28;20328;-75
2023/02/17 13:42:53;;;;;;;7.53;2.03;;;15.20;69.50;;;;;;5077942;28;20108;-75
2023/02/17 13:45:25;;;;;;;7.03;1.38;;;15.30;69.50;;;;;;5078230;28;20134;-75
2023/02/17 13:47:57;;;;;;;8.30;2.03;;;15.30;69.50;;;;;;5078234;28;20044;-75
2023/02/17 13:50:30;;;;;;;10.90;1.95;;;15.30;69.30;;;;;;5095128;28;20044;-75
2023/02/17 13:52:56;;;;;;;11.10;2.58;;;15.30;69.00;;;;;;5089957;28;20044;-76
2023/02/17 13:55:24;;;;;;;10.60;2.35;;;15.30;69.20;;;;;;5057437;28;20459;-74
2023/02/17 13:57:57;;;;;;;12.38;1.83;;;15.30;69.30;;;;;;5075100;28;20052;-75
2023/02/17 14:00:25;;;;;;;;;;;15.30;69.20;;;;;;5057644;28;20048;-76
2023/02/17 14:02:53;;;;;;;5.60;1.42;;;15.30;69.00;;;;;;5075311;28;19920;-76
2023/02/17 14:05:31;;;;;;;9.52;1.48;;;15.30;69.20;;;;;;5075334;28;20044;-77
2023/02/17 14:08:14;;;;;;;7.78;1.65;;;15.30;69.70;;;;;;5075023;28;20413;-76
2023/02/17 14:10:40;;;;;;;13.32;1.60;;;15.40;69.70;;;;;;5079273;28;20156;-76
2023/02/17 14:13:10;;;;;;;10.55;1.30;;;15.60;69.60;;;;;;5095325;28;20048;-75
2023/02/17 14:15:35;;;;;;;6.85;1.95;;;15.70;69.50;;;;;;5094945;28;20115;-75
2023/02/17 14:18:12;;;;;;;8.48;1.73;;;15.80;69.50;;;;;;5095269;28;20090;-77
2023/02/17 14:20:38;;;;;;;13.40;2.03;;;15.80;69.50;;;;;;5077249;28;20056;-75
2023/02/17 14:23:12;;;;;;;6.88;1.60;;;15.90;69.60;;;;;;5094688;28;20117;-75
2023/02/17 14:25:45;;;;;;;10.02;1.75;;;16.00;69.70;;;;;;5094897;28;20048;-79
2023/02/17 14:28:25;;;;;;;7.30;1.23;;;16.00;69.70;;;;;;5095071;28;20040;-75
2023/02/17 14:30:52;;;;;;;9.52;1.55;;;16.00;70.30;;;;;;5072936;28;20052;-75
2023/02/17 14:33:21;;;;;;;8.52;1.83;;;16.00;69.60;;;;;;5074725;28;20080;-76
2023/02/17 14:36:03;;;;;;;10.63;2.22;;;16.10;69.70;;;;;;5074576;28;20060;-74
2023/02/17 14:38:36;;;;;;;12.18;1.92;;;16.10;69.80;;;;;;5075718;28;20066;-72
2023/02/17 14:41:08;;;;;;;15.57;1.83;;;16.10;69.80;;;;;;5074710;28;20044;-75
2023/02/17 14:43:34;;;;;;;10.68;1.75;;;16.10;69.90;;;;;;5074793;28;20044;-75
2023/02/17 14:46:00;;;;;;;12.43;2.42;;;16.10;70.00;;;;;;5074193;28;20451;-74
2023/02/17 14:48:26;;;;;;;11.93;1.92;;;16.10;70.70;;;;;;5088960;28;20056;-73
2023/02/17 14:50:53;;;;;;;11.18;1.85;;;16.10;70.20;;;;;;5086017;28;20115;-79
2023/02/17 14:53:22;;;;;;;9.43;1.60;;;16.10;70.20;;;;;;5079451;28;20047;-75
2023/02/17 14:55:58;;;;;;;11.40;1.77;;;16.20;70.40;;;;;;5075541;28;20062;-76
2023/02/17 14:58:25;;;;;;;10.57;1.50;;;16.10;70.50;;;;;;5078239;28;20063;-75
2023/02/17 15:00:51;;;;;;;7.57;1.85;;;16.10;70.60;;;;;;5095259;28;20059;-76
2023/02/17 15:03:17;;;;;;;14.77;2.13;;;16.10;70.90;;;;;;5098740;28;20052;-75
2023/02/17 15:05:43;;;;;;;11.55;1.83;;;16.10;71.00;;;;;;5099068;28;20058;-73
2023/02/17 15:08:15;;;;;;;16.08;2.00;;;16.10;71.10;;;;;;5098475;28;20052;-73
2023/02/17 15:10:42;;;;;;;19.80;2.63;;;16.20;71.30;;;;;;5081370;28;20413;-72
2023/02/17 15:13:16;;;;;;;13.18;1.92;;;16.10;71.40;;;;;;5079751;28;20050;-72
2023/02/17 15:15:43;;;;;;;18.95;2.22;;;16.20;71.50;;;;;;5097436;28;20556;-74
2023/02/17 15:18:15;;;;;;;9.38;1.70;;;16.10;71.80;;;;;;5082121;28;20045;-72
2023/02/17 15:20:43;;;;;;;16.45;2.53;;;16.10;71.90;;;;;;5093379;28;20072;-73
2023/02/17 15:23:17;;;;;;;11.05;2.67;;;16.10;72.80;;;;;;5097006;28;20048;-72
2023/02/17 15:25:43;;;;;;;;;;;16.20;72.20;;;;;;5077688;28;20128;-73
2023/02/17 15:28:17;;;;;;;15.20;3.45;;;16.20;71.30;;;;;;5077636;28;19920;-73
2023/02/17 15:30:55;;;;;;;12.90;3.15;;;16.10;70.90;;;;;;5075449;28;20470;-74
2023/02/17 15:33:22;;;;;;;18.45;2.80;;;16.10;70.90;;;;;;5097891;28;20055;-72
2023/02/17 15:35:52;;;;;;;13.05;2.63;;;16.20;71.10;;;;;;5097570;28;20044;-81
2023/02/17 15:38:18;;;;;;;12.98;2.20;;;16.20;71.10;;;;;;5079849;28;20354;-79
2023/02/17 15:40:44;;;;;;;11.95;2.22;;;16.20;71.20;;;;;;5097013;28;20044;-75
2023/02/17 15:43:18;;;;;;;9.65;1.98;;;16.30;70.90;;;;;;5097659;28;20040;-76
2023/02/17 15:45:44;;;;;;;13.90;2.92;;;16.40;70.60;;;;;;5097686;28;20116;-75
2023/02/17 15:48:15;;;;;;;13.48;2.17;;;16.40;70.40;;;;;;5096314;28;20480;-75
2023/02/17 15:50:40;;;;;;;16.90;2.75;;;16.50;70.20;;;;;;5081837;28;20406;-76
2023/02/17 15:53:06;;;;;;;13.55;2.83;;;16.50;70.30;;;;;;5077651;28;20049;-75
2023/02/17 15:55:33;;;;;;;9.60;2.17;;;16.60;70.30;;;;;;5077223;28;20076;-77
2023/02/17 15:58:03;;;;;;;16.98;2.88;;;16.70;70.40;;;;;;5077238;28;20056;-76
2023/02/17 16:00:32;;;;;;;13.98;3.55;;;16.70;70.40;;;;;;5077279;28;20459;-77
2023/02/17 16:03:02;;;;;;;15.23;5.35;;;16.70;70.50;;;;;;5059233;28;20038;-79
2023/02/17 16:05:29;;;;;;;15.60;6.38;;;16.70;70.60;;;;;;5076726;28;20044;-76
2023/02/17 16:07:55;;;;;;;17.00;8.18;;;16.70;70.70;;;;;;5077717;28;20122;-77
2023/02/17 16:10:30;;;;;;;16.70;4.95;;;16.70;70.90;;;;;;5096012;28;20056;-77
2023/02/17 16:13:08;;;;;;;19.00;5.13;;;16.70;70.80;;;;;;5059340;28;20043;-76
2023/02/17 16:15:37;;;;;;;17.80;6.32;;;16.80;70.80;;;;;;5077131;28;20469;-76
2023/02/17 16:18:03;;;;;;;15.27;6.50;;;16.70;71.10;;;;;;5077850;28;20045;-76
2023/02/17 16:20:34;;;;;;;17.25;5.70;;;16.70;71.40;;;;;;5096816;28;20378;-77
2023/02/17 16:23:00;;;;;;;12.55;4.97;;;16.70;71.60;;;;;;5070956;28;20063;-77
2023/02/17 16:25:27;;;;;;;18.90;6.60;;;16.70;71.60;;;;;;5076501;28;20101;-77
2023/02/17 16:27:54;;;;;;;15.77;7.20;;;16.60;71.70;;;;;;5076752;28;20112;-74
2023/02/17 16:30:21;;;;;;;16.70;6.68;;;16.60;72.10;;;;;;5076277;28;20040;-77
2023/02/17 16:32:47;;;;;;;15.35;6.22;;;16.60;72.30;;;;;;5059025;28;20044;-77
2023/02/17 16:35:17;;;;;;;17.55;6.13;;;16.60;72.40;;;;;;5076920;28;20055;-78
2023/02/17 16:37:52;;;;;;;20.48;6.22;;;16.60;72.50;;;;;;5075787;28;20451;-75
2023/02/17 16:40:20;;;;;;;15.55;5.60;;;16.50;72.70;;;;;;5058946;28;20048;-75
2023/02/17 16:42:46;;;;;;;19.30;5.55;;;16.50;72.70;;;;;;5058460;28;20119;-76
2023/02/17 16:45:16;;;;;;;15.93;5.90;;;16.40;72.40;;;;;;5042738;28;20056;-76
